Time;durP1;ratioP1;P1;durP2;ratioP2;P2;SDS_P1;SDS_P2;PMS_P1;PMS_P2;Temp;Humidity;BMP_temperature;BMP_pressure;BME280_temperature;BME280_humidity;BME280_pressure;Samples;Min_cycle;Max_cycle;Signal;HPM_P1;HPM_P2
2021/05/29 00:01:06;;;;;;;8.13;6.17;;;10.40;99.90;;;;;;5072522;28;20205;-53
2021/05/29 00:03:32;;;;;;;6.80;5.67;;;10.40;99.90;;;;;;5072725;28;20209;-55
2021/05/29 00:06:00;;;;;;;9.87;6.97;;;10.40;99.90;;;;;;5072361;28;20231;-58
2021/05/29 00:08:26;;;;;;;8.70;6.70;;;10.30;99.90;;;;;;5072589;28;20299;-56
2021/05/29 00:10:55;;;;;;;10.17;6.70;;;10.30;99.90;;;;;;5072188;28;20204;-52
2021/05/29 00:13:23;;;;;;;9.33;6.63;;;10.30;99.90;;;;;;5072321;28;20197;-55
2021/05/29 00:15:51;;;;;;;9.97;6.93;;;10.30;99.90;;;;;;5072384;28;20580;-58
2021/05/29 00:18:18;;;;;;;10.93;6.27;;;10.30;99.90;;;;;;5072381;28;20219;-57
2021/05/29 00:20:45;;;;;;;9.20;6.83;;;10.30;99.90;;;;;;5072312;28;20208;-58
2021/05/29 00:23:12;;;;;;;10.50;7.47;;;10.30;99.90;;;;;;5072333;28;20270;-54
2021/05/29 00:25:40;;;;;;;9.10;6.73;;;10.20;99.90;;;;;;5072120;28;20225;-55
2021/05/29 00:28:06;;;;;;;10.33;7.07;;;10.20;99.90;;;;;;5072318;28;20209;-56
2021/05/29 00:30:32;;;;;;;11.57;7.00;;;10.20;99.90;;;;;;5072174;28;20204;-54
2021/05/29 00:32:59;;;;;;;8.80;7.47;;;10.20;99.90;;;;;;5072228;28;20205;-56
2021/05/29 00:35:26;;;;;;;12.67;8.87;;;10.20;99.90;;;;;;5072113;28;20316;-55
2021/05/29 00:37:52;;;;;;;13.30;9.17;;;10.10;99.90;;;;;;5072073;28;20205;-56
2021/05/29 00:40:19;;;;;;;11.73;8.47;;;10.10;99.90;;;;;;5071974;28;20215;-56
2021/05/29 00:42:45;;;;;;;11.03;8.00;;;10.00;99.90;;;;;;5072120;28;20228;-54
2021/05/29 00:45:12;;;;;;;11.17;8.03;;;10.00;99.90;;;;;;5072277;28;20281;-56
2021/05/29 00:47:38;;;;;;;11.80;6.97;;;10.00;99.90;;;;;;5072338;28;20216;-57
2021/05/29 00:50:07;;;;;;;9.80;6.77;;;10.00;99.90;;;;;;5072163;28;20216;-56
2021/05/29 00:52:35;;;;;;;10.63;7.60;;;10.00;99.90;;;;;;5072394;28;20207;-56
2021/05/29 00:55:06;;;;;;;9.40;6.37;;;10.10;99.90;;;;;;5072010;28;20238;-54
2021/05/29 00:57:32;;;;;;;9.23;6.87;;;10.00;99.90;;;;;;5072253;28;20208;-54
2021/05/29 00:59:58;;;;;;;8.00;6.97;;;10.00;99.90;;;;;;5073132;28;20212;-52
2021/05/29 01:02:26;;;;;;;13.50;6.93;;;9.90;99.90;;;;;;5078500;28;20237;-56
2021/05/29 01:04:53;;;;;;;11.83;7.30;;;9.90;99.90;;;;;;5078247;28;20230;-54
2021/05/29 01:07:19;;;;;;;9.90;6.90;;;9.90;99.90;;;;;;5078223;28;20212;-57
2021/05/29 01:09:46;;;;;;;8.43;6.83;;;9.80;99.90;;;;;;5078530;28;20281;-53
2021/05/29 01:12:14;;;;;;;8.67;6.23;;;9.80;99.90;;;;;;5078618;28;20207;-57
2021/05/29 01:14:47;;;;;;;10.37;7.80;;;9.70;99.90;;;;;;5078524;28;20256;-58
2021/05/29 01:17:14;;;;;;;10.43;9.03;;;9.60;99.90;;;;;;5079246;28;20293;-56
2021/05/29 01:19:40;;;;;;;10.73;8.80;;;9.30;99.90;;;;;;5079276;28;20254;-56
2021/05/29 01:22:08;;;;;;;13.40;8.60;;;9.30;99.90;;;;;;5078547;28;20698;-57
2021/05/29 01:24:35;;;;;;;9.97;7.87;;;9.30;99.90;;;;;;5078694;28;20606;-51
2021/05/29 01:27:01;;;;;;;12.40;8.27;;;9.40;1.00;;;;;;5078462;28;20257;-55
2021/05/29 01:29:29;;;;;;;8.53;7.20;;;9.30;1.00;;;;;;5078395;28;20202;-56
2021/05/29 01:32:01;;;;;;;8.40;7.50;;;9.30;1.00;;;;;;5078087;28;20550;-55
2021/05/29 01:34:30;;;;;;;10.20;7.60;;;9.30;1.00;;;;;;5078064;28;20208;-55
2021/05/29 01:36:57;;;;;;;13.93;8.33;;;9.20;1.00;;;;;;5078242;28;20205;-53
2021/05/29 01:39:24;;;;;;;10.77;7.63;;;9.10;1.00;;;;;;5078175;28;20208;-56
2021/05/29 01:41:51;;;;;;;10.70;8.03;;;9.00;1.00;;;;;;5077989;28;20227;-52
2021/05/29 01:44:18;;;;;;;11.33;8.33;;;9.00;1.00;;;;;;5078020;28;20216;-56
2021/05/29 01:46:44;;;;;;;10.67;8.23;;;9.00;1.00;;;;;;5077987;28;20224;-54
2021/05/29 01:49:10;;;;;;;10.37;8.10;;;9.00;1.00;;;;;;5077812;28;20208;-51
2021/05/29 01:51:36;;;;;;;11.50;7.80;;;9.00;1.00;;;;;;5077922;28;20199;-56
2021/05/29 01:54:03;;;;;;;10.97;8.13;;;8.90;1.00;;;;;;5077709;28;20653;-53
2021/05/29 01:56:30;;;;;;;8.90;7.67;;;8.90;1.00;;;;;;5078003;28;20225;-53
2021/05/29 01:58:56;;;;;;;10.10;8.17;;;8.80;1.00;;;;;;5077894;28;20202;-52
2021/05/29 02:01:22;;;;;;;10.77;8.20;;;8.80;1.00;;;;;;5077723;28;20209;-56
2021/05/29 02:03:48;;;;;;;14.30;8.67;;;8.80;1.00;;;;;;5077580;28;20209;-54
2021/05/29 02:06:16;;;;;;;8.97;7.40;;;8.80;1.00;;;;;;5077902;28;20579;-55
2021/05/29 02:08:42;;;;;;;16.53;8.83;;;8.70;1.00;;;;;;5077909;28;20205;-51
2021/05/29 02:11:08;;;;;;;13.57;8.20;;;8.70;1.00;;;;;;5077283;28;20212;-57
2021/05/29 02:13:38;;;;;;;11.40;8.90;;;8.60;1.00;;;;;;5073689;28;20217;-56
2021/05/29 02:16:06;;;;;;;12.00;8.70;;;8.60;1.00;;;;;;5074411;28;20236;-56
2021/05/29 02:18:32;;;;;;;12.03;8.63;;;8.60;1.00;;;;;;5075231;28;20208;-55
2021/05/29 02:21:01;;;;;;;12.00;9.47;;;8.50;1.00;;;;;;5074868;28;20213;-52
2021/05/29 02:23:29;;;;;;;12.27;8.67;;;8.50;1.00;;;;;;5074756;28;20232;-52
2021/05/29 02:25:57;;;;;;;11.93;8.00;;;8.50;1.00;;;;;;5074505;28;20839;-54
2021/05/29 02:28:24;;;;;;;11.07;8.57;;;8.50;1.00;;;;;;5074675;28;20201;-53
2021/05/29 02:30:52;;;;;;;13.10;8.30;;;8.40;1.00;;;;;;5074238;28;20217;-57
2021/05/29 02:33:19;;;;;;;10.00;8.43;;;8.40;1.00;;;;;;5074735;28;20234;-56
2021/05/29 02:35:46;;;;;;;12.70;9.37;;;8.40;1.00;;;;;;5074144;28;20229;-50
2021/05/29 02:38:12;;;;;;;13.30;9.00;;;8.40;1.00;;;;;;5074624;28;20205;-54
2021/05/29 02:40:38;;;;;;;13.67;9.00;;;8.30;1.00;;;;;;5074244;28;20205;-55
2021/05/29 02:43:05;;;;;;;10.50;9.07;;;8.40;1.00;;;;;;5074348;28;20221;-54
2021/05/29 02:45:31;;;;;;;12.07;9.30;;;8.30;1.00;;;;;;5073957;28;20255;-55
2021/05/29 02:47:58;;;;;;;10.43;8.43;;;8.30;1.00;;;;;;5074090;28;20213;-50
2021/05/29 02:50:25;;;;;;;11.07;8.67;;;8.30;1.00;;;;;;5074567;28;20220;-56
2021/05/29 02:52:51;;;;;;;11.07;7.87;;;8.20;1.00;;;;;;5074148;28;20197;-54
2021/05/29 02:55:22;;;;;;;12.87;8.73;;;8.20;1.00;;;;;;5073975;28;20237;-51
2021/05/29 02:57:49;;;;;;;12.47;9.90;;;8.20;1.00;;;;;;5073886;28;20303;-53
2021/05/29 03:00:17;;;;;;;15.67;9.53;;;8.20;1.00;;;;;;5073917;28;20685;-55
2021/05/29 03:02:43;;;;;;;18.87;10.40;;;8.20;1.00;;;;;;5073948;28;20221;-53
2021/05/29 03:05:11;;;;;;;11.73;9.27;;;8.20;1.00;;;;;;5073629;28;20228;-54
2021/05/29 03:07:38;;;;;;;16.47;10.73;;;8.20;1.00;;;;;;5073932;28;20212;-51
2021/05/29 03:10:06;;;;;;;12.47;9.27;;;8.10;1.00;;;;;;5073459;28;20205;-56
2021/05/29 03:12:35;;;;;;;16.67;9.87;;;8.10;1.00;;;;;;5073319;28;20197;-54
2021/05/29 03:15:02;;;;;;;13.33;9.60;;;8.10;1.00;;;;;;5073700;28;20320;-57
2021/05/29 03:17:28;;;;;;;13.43;9.33;;;8.10;1.00;;;;;;5073865;28;20258;-54
2021/05/29 03:19:54;;;;;;;13.20;9.77;;;8.10;1.00;;;;;;5073753;28;20205;-56
2021/05/29 03:22:21;;;;;;;14.43;10.70;;;8.00;1.00;;;;;;5073688;28;20590;-49
2021/05/29 03:24:47;;;;;;;15.57;10.43;;;8.00;1.00;;;;;;5072703;28;20232;-53
2021/05/29 03:27:17;;;;;;;17.07;11.07;;;8.00;1.00;;;;;;5073102;28;20213;-53
2021/05/29 03:29:43;;;;;;;18.10;12.10;;;8.00;1.00;;;;;;5073252;28;20611;-51
2021/05/29 03:32:10;;;;;;;19.10;11.60;;;8.00;1.00;;;;;;5073210;28;20730;-53
2021/05/29 03:34:36;;;;;;;13.37;10.57;;;8.00;1.00;;;;;;5073179;28;20267;-55
2021/05/29 03:37:02;;;;;;;16.77;12.10;;;8.00;1.00;;;;;;5074364;28;20201;-55
2021/05/29 03:39:29;;;;;;;15.17;11.57;;;8.10;1.00;;;;;;5074061;28;20662;-57
2021/05/29 03:41:56;;;;;;;14.47;11.13;;;8.10;1.00;;;;;;5073537;28;20221;-54
2021/05/29 03:44:22;;;;;;;17.57;12.80;;;8.10;1.00;;;;;;5072825;28;20677;-53
2021/05/29 03:46:48;;;;;;;19.83;12.37;;;8.00;1.00;;;;;;5073002;28;20232;-53
2021/05/29 03:49:14;;;;;;;18.87;13.07;;;8.10;1.00;;;;;;5073092;28;20209;-53
2021/05/29 03:51:40;;;;;;;16.57;12.43;;;8.10;1.00;;;;;;5073469;28;20669;-58
2021/05/29 03:54:07;;;;;;;16.97;12.90;;;8.10;1.00;;;;;;5073845;28;20209;-56
2021/05/29 03:56:33;;;;;;;18.77;13.63;;;8.10;1.00;;;;;;5073790;28;20228;-54
2021/05/29 03:59:02;;;;;;;19.90;13.10;;;8.10;1.00;;;;;;5072541;28;20209;-52
2021/05/29 04:01:29;;;;;;;17.77;13.43;;;8.10;1.00;;;;;;5072412;28;20201;-54
2021/05/29 04:03:55;;;;;;;20.27;12.63;;;8.20;1.00;;;;;;5072497;28;20783;-56
2021/05/29 04:06:21;;;;;;;16.47;13.10;;;8.20;1.00;;;;;;5072296;28;20232;-51
2021/05/29 04:08:47;;;;;;;20.13;13.93;;;8.20;1.00;;;;;;5072464;28;20205;-56
2021/05/29 04:11:14;;;;;;;18.27;14.27;;;8.20;1.00;;;;;;5072209;28;20688;-53
2021/05/29 04:13:41;;;;;;;21.13;15.53;;;8.20;1.00;;;;;;5071723;28;20212;-56
2021/05/29 04:16:07;;;;;;;20.80;15.53;;;8.30;1.00;;;;;;5072468;28;20267;-54
2021/05/29 04:18:33;;;;;;;25.43;17.30;;;8.30;1.00;;;;;;5072116;28;20677;-55
2021/05/29 04:20:59;;;;;;;25.93;18.97;;;8.20;1.00;;;;;;5072074;28;20204;-54
2021/05/29 04:23:25;;;;;;;28.23;18.97;;;8.30;3.60;;;;;;5072224;28;20228;-55
2021/05/29 04:25:52;;;;;;;27.23;18.00;;;8.30;18.00;;;;;;5072331;28;20283;-51
2021/05/29 04:28:18;;;;;;;29.40;18.50;;;8.40;36.50;;;;;;5072066;28;20246;-53
2021/05/29 04:30:45;;;;;;;29.67;18.97;;;8.40;54.90;;;;;;5072131;28;20239;-54
2021/05/29 04:33:11;;;;;;;27.93;19.00;;;8.50;85.10;;;;;;5072225;28;20638;-58
2021/05/29 04:35:37;;;;;;;29.43;19.87;;;8.60;99.90;;;;;;5071245;28;20603;-56
2021/05/29 04:38:03;;;;;;;28.83;20.37;;;8.70;99.90;;;;;;5071880;28;20711;-56
2021/05/29 04:40:29;;;;;;;28.80;19.33;;;8.80;99.90;;;;;;5072105;28;20215;-54
2021/05/29 04:42:59;;;;;;;22.60;17.33;;;8.80;99.90;;;;;;5072171;28;20224;-54
2021/05/29 04:45:25;;;;;;;23.47;16.63;;;8.90;99.90;;;;;;5072103;28;20229;-53
2021/05/29 04:47:53;;;;;;;20.97;15.77;;;8.90;99.90;;;;;;5071917;28;20205;-57
2021/05/29 04:50:20;;;;;;;22.07;16.83;;;9.00;99.90;;;;;;5071816;28;20236;-55
2021/05/29 04:52:46;;;;;;;19.13;14.17;;;9.00;99.90;;;;;;5072149;28;20623;-55
2021/05/29 04:55:13;;;;;;;19.40;14.97;;;9.00;99.90;;;;;;5071952;28;20237;-55
2021/05/29 04:57:39;;;;;;;19.47;13.80;;;9.10;99.90;;;;;;5072112;28;20209;-54
2021/05/29 05:00:08;;;;;;;20.80;15.13;;;9.20;95.10;;;;;;5071772;28;20208;-57
2021/05/29 05:02:34;;;;;;;19.43;14.27;;;9.30;62.80;;;;;;5071776;28;20358;-58
2021/05/29 05:05:01;;;;;;;20.20;12.90;;;9.30;15.60;;;;;;5071673;28;20270;-56
2021/05/29 05:07:27;;;;;;;18.10;14.10;;;9.40;4.40;;;;;;5072142;28;20212;-54
2021/05/29 05:09:53;;;;;;;17.60;13.47;;;9.40;1.00;;;;;;5071958;28;20201;-53
2021/05/29 05:12:19;;;;;;;18.43;13.97;;;9.50;1.00;;;;;;5071821;28;20684;-55
2021/05/29 05:14:45;;;;;;;20.67;13.33;;;9.50;1.00;;;;;;5071861;28;20666;-52
2021/05/29 05:17:12;;;;;;;18.17;13.73;;;9.60;1.00;;;;;;5071670;28;20689;-57
2021/05/29 05:19:39;;;;;;;19.07;13.80;;;9.70;1.00;;;;;;5071752;28;20206;-55
2021/05/29 05:22:06;;;;;;;16.83;13.77;;;9.70;1.00;;;;;;5071647;28;20612;-54
2021/05/29 05:24:32;;;;;;;20.43;14.70;;;9.80;1.00;;;;;;5071856;28;20207;-56
2021/05/29 05:26:58;;;;;;;17.93;14.30;;;9.80;1.00;;;;;;5071839;28;20214;-50
2021/05/29 05:29:24;;;;;;;15.70;12.87;;;9.90;1.00;;;;;;5071671;28;20207;-52
2021/05/29 05:31:51;;;;;;;20.43;13.47;;;10.00;1.00;;;;;;5071282;28;20687;-57
2021/05/29 05:34:17;;;;;;;16.47;12.70;;;10.10;1.00;;;;;;5071572;28;20215;-51
2021/05/29 05:36:43;;;;;;;16.73;12.93;;;10.20;1.00;;;;;;5071364;28;20734;-56
2021/05/29 05:39:13;;;;;;;17.40;13.17;;;10.30;1.00;;;;;;5071669;28;20215;-50
2021/05/29 05:41:40;;;;;;;18.47;14.00;;;10.40;1.00;;;;;;5071435;28;20610;-52
2021/05/29 05:44:07;;;;;;;19.40;12.40;;;10.40;1.00;;;;;;5071438;28;20212;-53
2021/05/29 05:46:34;;;;;;;15.57;12.20;;;10.50;1.00;;;;;;5072446;28;20229;-56
2021/05/29 05:49:00;;;;;;;17.40;13.33;;;10.60;1.00;;;;;;5075538;28;20624;-54
2021/05/29 05:51:26;;;;;;;15.87;11.10;;;10.70;1.00;;;;;;5075035;28;20246;-49
2021/05/29 05:53:53;;;;;;;14.47;11.80;;;10.70;1.00;;;;;;5074912;28;20682;-54
2021/05/29 05:56:26;;;;;;;14.20;11.40;;;10.90;1.00;;;;;;5075058;28;20236;-53
2021/05/29 05:58:52;;;;;;;15.30;11.03;;;10.90;1.00;;;;;;5074950;28;20306;-56
2021/05/29 06:01:19;;;;;;;17.30;11.70;;;11.00;1.00;;;;;;5074565;28;20216;-52
2021/05/29 06:03:45;;;;;;;14.03;11.97;;;11.10;1.00;;;;;;5075227;28;20221;-57
2021/05/29 06:06:11;;;;;;;14.90;11.20;;;11.20;1.00;;;;;;5074722;28;20709;-57
2021/05/29 06:08:38;;;;;;;13.87;11.93;;;11.30;1.00;;;;;;5075048;28;20637;-53
2021/05/29 06:11:04;;;;;;;14.53;11.50;;;11.40;1.00;;;;;;5074832;28;20211;-51
2021/05/29 06:19:11;;;;;;;15.67;10.67;;;11.80;99.90;;;;;;5074667;28;20212;-49
2021/05/29 06:21:38;;;;;;;16.43;11.13;;;11.90;99.90;;;;;;5074456;28;20205;-54
2021/05/29 06:24:06;;;;;;;14.77;10.83;;;12.00;99.90;;;;;;5074383;28;20582;-52
2021/05/29 06:26:32;;;;;;;14.37;10.43;;;12.10;99.90;;;;;;5074535;28;20229;-53
2021/05/29 06:28:59;;;;;;;13.67;10.57;;;12.00;99.90;;;;;;5074602;28;20220;-55
2021/05/29 06:31:26;;;;;;;14.83;11.07;;;12.10;99.90;;;;;;5074091;28;20879;-52
2021/05/29 06:33:52;;;;;;;13.60;9.60;;;12.10;99.90;;;;;;5074415;28;20820;-53
2021/05/29 06:36:18;;;;;;;12.80;10.73;;;12.20;99.90;;;;;;5074043;28;20751;-51
2021/05/29 06:38:45;;;;;;;12.57;9.77;;;12.20;99.90;;;;;;5074160;28;20685;-55
2021/05/29 06:41:11;;;;;;;11.13;9.63;;;12.40;99.90;;;;;;5074160;28;20293;-53
2021/05/29 06:43:37;;;;;;;13.63;10.00;;;12.50;99.90;;;;;;5074181;28;20784;-57
2021/05/29 06:46:04;;;;;;;11.73;9.20;;;12.50;99.90;;;;;;5073907;28;20774;-55
2021/05/29 06:48:30;;;;;;;11.03;9.33;;;12.60;99.90;;;;;;5074115;28;20254;-54
2021/05/29 06:50:57;;;;;;;12.43;9.50;;;12.70;99.90;;;;;;5073788;28;20299;-52
2021/05/29 06:53:27;;;;;;;12.70;9.90;;;12.60;99.90;;;;;;5073850;28;20574;-55
2021/05/29 06:58:48;;;;;;;14.97;10.23;;;12.80;99.90;;;;;;5073238;28;20207;-56
2021/05/29 07:01:16;;;;;;;12.67;9.37;;;13.00;99.90;;;;;;5074005;28;20215;-51
2021/05/29 07:03:42;;;;;;;12.60;10.40;;;13.30;99.90;;;;;;5073597;28;20248;-56
2021/05/29 07:06:09;;;;;;;14.17;10.63;;;13.30;99.90;;;;;;5073870;28;20226;-56
2021/05/29 07:08:35;;;;;;;12.10;9.43;;;13.20;99.90;;;;;;5073790;28;20579;-54
2021/05/29 07:11:01;;;;;;;13.13;10.33;;;13.10;99.90;;;;;;5073797;28;20282;-57
2021/05/29 07:13:27;;;;;;;14.57;11.60;;;13.20;99.90;;;;;;5073690;28;20212;-55
2021/05/29 07:15:53;;;;;;;16.03;11.43;;;13.30;99.90;;;;;;5073419;28;20276;-58
2021/05/29 07:18:22;;;;;;;15.10;11.73;;;13.50;99.90;;;;;;5073574;28;20224;-54
2021/05/29 07:20:49;;;;;;;14.33;11.57;;;13.70;99.90;;;;;;5073372;28;20211;-56
2021/05/29 07:23:15;;;;;;;14.97;10.00;;;13.80;99.90;;;;;;5073502;28;20228;-56
2021/05/29 07:25:42;;;;;;;14.67;10.07;;;14.00;99.90;;;;;;5073349;28;20225;-55
2021/05/29 07:28:09;;;;;;;14.63;10.93;;;14.20;99.90;;;;;;5073433;28;20251;-54
2021/05/29 07:30:35;;;;;;;13.53;9.67;;;14.20;99.90;;;;;;5073262;28;20563;-56
2021/05/29 07:33:01;;;;;;;12.97;10.60;;;14.30;99.90;;;;;;5069947;28;20258;-54
2021/05/29 07:35:29;;;;;;;13.40;11.10;;;14.20;99.90;;;;;;5073346;28;20243;-57
2021/05/29 07:37:55;;;;;;;15.00;12.10;;;14.30;99.90;;;;;;5072638;28;20283;-54
2021/05/29 07:40:22;;;;;;;15.47;11.03;;;14.40;99.90;;;;;;5073181;28;20212;-54
2021/05/29 07:42:48;;;;;;;15.93;13.40;;;14.60;99.90;;;;;;5072959;28;20257;-57
2021/05/29 07:45:16;;;;;;;17.37;14.33;;;14.70;99.90;;;;;;5072800;28;20228;-55
2021/05/29 07:47:43;;;;;;;25.90;19.27;;;14.90;99.90;;;;;;5073021;28;20209;-56
2021/05/29 07:50:11;;;;;;;21.60;16.27;;;14.90;99.90;;;;;;5072958;28;20283;-54
2021/05/29 07:52:39;;;;;;;19.20;15.77;;;14.80;99.90;;;;;;5073010;28;20205;-53
2021/05/29 07:55:06;;;;;;;22.83;16.87;;;14.40;99.90;;;;;;5072680;28;20374;-52
2021/05/29 07:57:33;;;;;;;21.40;18.00;;;14.50;99.90;;;;;;5072679;28;20212;-52
2021/05/29 07:59:59;;;;;;;22.97;17.57;;;14.50;99.90;;;;;;5072265;28;20219;-52
2021/05/29 08:02:25;;;;;;;22.70;17.90;;;14.50;99.90;;;;;;5072638;28;20275;-55
2021/05/29 08:04:52;;;;;;;26.37;19.70;;;14.70;99.90;;;;;;5072894;28;20225;-57
2021/05/29 08:07:18;;;;;;;24.63;21.00;;;14.80;99.90;;;;;;5072905;28;20215;-57
2021/05/29 08:09:45;;;;;;;24.53;19.73;;;14.80;99.90;;;;;;5071939;28;20205;-56
2021/05/29 08:12:12;;;;;;;25.00;20.17;;;14.90;99.90;;;;;;5072266;28;20200;-55
2021/05/29 08:14:38;;;;;;;24.70;19.07;;;14.80;99.90;;;;;;5072031;28;20244;-54
2021/05/29 08:17:05;;;;;;;24.37;18.73;;;15.10;99.90;;;;;;5072590;28;20623;-54
2021/05/29 08:19:32;;;;;;;21.80;17.93;;;15.40;99.90;;;;;;5072554;28;20205;-56
2021/05/29 08:21:58;;;;;;;22.70;18.07;;;15.10;99.90;;;;;;5072652;28;20220;-54
2021/05/29 08:24:24;;;;;;;21.63;18.53;;;15.00;99.90;;;;;;5072547;28;20205;-55
2021/05/29 08:26:53;;;;;;;22.23;18.53;;;15.10;99.90;;;;;;5072516;28;20232;-57
2021/05/29 08:29:19;;;;;;;23.17;18.27;;;15.20;99.90;;;;;;5072397;28;20289;-55
2021/05/29 08:31:46;;;;;;;17.00;14.87;;;15.30;99.90;;;;;;5072135;28;20201;-55
2021/05/29 08:34:13;;;;;;;18.37;14.77;;;15.30;99.90;;;;;;5072222;28;20204;-52
2021/05/29 08:36:40;;;;;;;19.03;16.20;;;15.20;99.90;;;;;;5072154;28;20232;-57
2021/05/29 08:39:09;;;;;;;22.60;15.40;;;15.20;99.90;;;;;;5072213;28;20258;-55
2021/05/29 08:41:36;;;;;;;17.63;15.30;;;15.30;99.90;;;;;;5071999;28;20212;-58
2021/05/29 08:44:03;;;;;;;13.47;11.53;;;15.60;99.90;;;;;;5072382;28;20228;-54
2021/05/29 08:46:30;;;;;;;15.77;12.67;;;15.70;99.90;;;;;;5069224;28;20240;-56
2021/05/29 08:48:57;;;;;;;17.73;13.10;;;15.50;99.90;;;;;;5071084;28;20275;-57
2021/05/29 08:51:24;;;;;;;16.03;12.33;;;15.30;99.90;;;;;;5071466;28;20209;-57
2021/05/29 08:53:51;;;;;;;14.80;10.20;;;15.10;99.90;;;;;;5071342;28;20224;-63
2021/05/29 08:56:21;;;;;;;12.40;9.90;;;15.40;99.90;;;;;;5071634;28;20229;-65
2021/05/29 08:58:48;;;;;;;10.63;8.67;;;15.40;99.90;;;;;;5071465;28;20212;-65
2021/05/29 09:01:16;;;;;;;10.90;9.30;;;15.70;99.90;;;;;;5071503;28;20213;-64
2021/05/29 09:03:46;;;;;;;13.43;10.73;;;15.50;99.90;;;;;;5071407;28;20315;-64
2021/05/29 09:06:14;;;;;;;12.60;9.43;;;15.30;99.90;;;;;;5071587;28;20732;-63
2021/05/29 09:08:51;;;;;;;13.13;9.20;;;15.10;99.90;;;;;;5071265;28;20201;-64
2021/05/29 09:11:43;;;;;;;11.00;8.63;;;15.10;99.90;;;;;;5071668;28;20229;-64
2021/05/29 09:14:35;;;;;;;10.57;7.43;;;15.50;99.90;;;;;;5071517;28;20205;-63
2021/05/29 09:17:07;;;;;;;14.50;8.30;;;15.60;99.90;;;;;;5071084;28;20244;-64
2021/05/29 09:19:55;;;;;;;12.40;9.07;;;15.70;99.90;;;;;;5071544;28;20223;-62
2021/05/29 09:22:23;;;;;;;13.13;9.27;;;15.50;99.90;;;;;;5073825;28;20228;-63
2021/05/29 09:25:01;;;;;;;11.87;8.60;;;15.50;99.90;;;;;;5075302;28;20228;-61
2021/05/29 09:27:27;;;;;;;12.07;8.97;;;15.50;99.90;;;;;;5075231;28;20204;-59
2021/05/29 09:29:53;;;;;;;12.90;8.57;;;14.90;99.90;;;;;;5075138;28;20258;-62
2021/05/29 09:32:20;;;;;;;11.03;7.73;;;15.10;99.90;;;;;;5075670;28;20201;-62
2021/05/29 09:34:51;;;;;;;11.87;8.73;;;15.50;99.90;;;;;;5075185;28;20204;-63
2021/05/29 09:37:19;;;;;;;9.50;8.00;;;15.90;99.90;;;;;;5075070;28;20205;-62
2021/05/29 09:39:47;;;;;;;10.33;8.73;;;16.30;99.90;;;;;;5075103;28;20232;-64
2021/05/29 09:42:15;;;;;;;16.73;8.37;;;16.40;99.90;;;;;;5075065;28;20200;-63
2021/05/29 09:44:42;;;;;;;12.53;9.47;;;15.80;99.90;;;;;;5075225;28;20201;-63
2021/05/29 09:47:12;;;;;;;13.30;9.63;;;15.60;99.90;;;;;;5074650;28;20603;-62
2021/05/29 09:49:46;;;;;;;13.10;9.17;;;15.80;99.90;;;;;;5075018;28;20312;-63
2021/05/29 09:52:31;;;;;;;11.40;8.13;;;15.90;99.90;;;;;;5074762;28;20204;-61
2021/05/29 09:54:59;;;;;;;11.83;7.97;;;16.20;99.90;;;;;;5074041;28;20243;-62
2021/05/29 09:57:26;;;;;;;9.03;7.63;;;16.30;99.90;;;;;;5074423;28;20231;-64
2021/05/29 10:00:00;;;;;;;9.60;8.13;;;16.30;99.90;;;;;;5074778;28;20209;-63
2021/05/29 10:02:27;;;;;;;11.33;8.13;;;16.30;99.90;;;;;;5074529;28;20252;-59
2021/05/29 10:04:56;;;;;;;11.93;8.67;;;16.20;99.90;;;;;;5074896;28;20232;-64
2021/05/29 10:07:24;;;;;;;11.00;8.33;;;15.90;99.90;;;;;;5074876;28;20250;-59
2021/05/29 10:09:51;;;;;;;11.77;7.80;;;16.00;99.90;;;;;;5074697;28;20209;-60
2021/05/29 10:12:17;;;;;;;11.53;8.53;;;16.30;99.90;;;;;;5074580;28;20601;-58
2021/05/29 10:14:44;;;;;;;13.80;9.37;;;15.90;99.90;;;;;;5073626;28;20209;-58
2021/05/29 10:17:12;;;;;;;10.43;7.10;;;15.70;99.90;;;;;;5074789;28;20211;-57
2021/05/29 10:19:39;;;;;;;15.83;8.77;;;15.90;99.90;;;;;;5074819;28;20205;-58
2021/05/29 10:22:09;;;;;;;11.50;8.50;;;15.90;99.90;;;;;;5074454;28;20315;-59
2021/05/29 10:24:37;;;;;;;13.13;8.57;;;16.10;99.90;;;;;;5074620;28;20204;-58
2021/05/29 10:27:09;;;;;;;12.33;8.80;;;16.10;99.90;;;;;;5074628;28;20205;-59
2021/05/29 10:29:36;;;;;;;11.13;8.37;;;16.00;99.90;;;;;;5074571;28;20258;-58
2021/05/29 10:32:14;;;;;;;12.10;8.37;;;16.20;99.90;;;;;;5074227;28;20227;-59
2021/05/29 10:35:01;;;;;;;11.53;8.60;;;16.50;99.90;;;;;;5073419;28;20692;-59
2021/05/29 10:37:31;;;;;;;9.43;7.60;;;16.20;99.90;;;;;;5074507;28;20220;-60
2021/05/29 10:40:21;;;;;;;10.97;8.23;;;16.10;99.90;;;;;;5074022;28;20208;-59
2021/05/29 10:42:49;;;;;;;12.50;8.37;;;16.10;99.90;;;;;;5069040;28;20225;-60
2021/05/29 10:45:18;;;;;;;12.77;7.40;;;16.60;99.90;;;;;;5073992;28;20228;-60
2021/05/29 10:48:04;;;;;;;12.80;7.80;;;16.20;99.90;;;;;;5074740;28;20278;-60
2021/05/29 10:51:08;;;;;;;10.73;7.77;;;15.80;99.90;;;;;;5073562;28;20209;-58
2021/05/29 10:53:46;;;;;;;12.43;7.63;;;16.00;99.90;;;;;;4992231;28;20204;-60
2021/05/29 10:56:26;;;;;;;12.57;7.80;;;16.10;99.90;;;;;;4992638;28;20228;-60
2021/05/29 10:58:58;;;;;;;12.50;7.57;;;16.30;99.90;;;;;;5044856;28;20254;-60
2021/05/29 11:02:08;;;;;;;11.73;7.57;;;16.30;99.90;;;;;;5073696;28;20243;-59
2021/05/29 11:04:35;;;;;;;10.23;7.33;;;16.50;99.90;;;;;;5073920;28;20201;-62
2021/05/29 11:07:23;;;;;;;10.90;7.30;;;16.30;99.90;;;;;;5073601;28;20212;-59
2021/05/29 11:09:56;;;;;;;10.07;7.30;;;16.70;99.90;;;;;;5073930;28;20213;-57
2021/05/29 11:12:49;;;;;;;12.73;7.13;;;16.70;99.90;;;;;;5073697;28;20231;-60
2021/05/29 11:15:15;;;;;;;9.40;6.50;;;16.80;99.90;;;;;;5073479;28;20225;-60
2021/05/29 11:18:08;;;;;;;10.03;6.47;;;16.60;99.90;;;;;;5073398;28;20259;-58
2021/05/29 11:21:03;;;;;;;8.50;6.87;;;16.70;99.90;;;;;;5073305;28;20205;-60
2021/05/29 11:23:29;;;;;;;11.57;7.53;;;16.80;99.90;;;;;;5073268;28;20225;-57
2021/05/29 11:25:56;;;;;;;10.00;7.43;;;16.80;99.90;;;;;;5073364;28;20263;-58
2021/05/29 11:28:23;;;;;;;12.87;6.43;;;16.90;99.90;;;;;;5073043;28;20585;-57
2021/05/29 11:30:49;;;;;;;10.50;7.00;;;17.20;99.90;;;;;;5073162;28;20201;-57
2021/05/29 11:33:16;;;;;;;10.57;6.63;;;17.20;99.90;;;;;;5073766;28;20216;-60
2021/05/29 11:35:45;;;;;;;8.87;6.50;;;17.10;99.90;;;;;;5073118;28;20569;-59
2021/05/29 11:38:15;;;;;;;8.63;6.20;;;16.70;99.90;;;;;;5073189;28;20689;-59
2021/05/29 11:40:58;;;;;;;8.90;7.10;;;16.90;99.90;;;;;;5072577;28;20205;-61
2021/05/29 11:43:36;;;;;;;10.53;6.87;;;16.70;99.90;;;;;;5070755;28;20221;-60
2021/05/29 11:46:04;;;;;;;9.43;6.70;;;16.90;99.90;;;;;;5072498;28;20357;-63
2021/05/29 11:48:32;;;;;;;9.70;6.63;;;17.00;99.90;;;;;;5072017;28;20246;-64
2021/05/29 11:51:10;;;;;;;9.73;6.20;;;17.10;99.90;;;;;;5072204;28;20220;-58
2021/05/29 11:53:39;;;;;;;8.37;6.23;;;17.20;99.90;;;;;;5072439;28;20205;-58
2021/05/29 11:56:06;;;;;;;7.37;6.23;;;17.10;99.90;;;;;;5071719;28;20229;-59
2021/05/29 11:58:52;;;;;;;8.67;6.30;;;17.00;99.90;;;;;;5071725;28;20208;-62
2021/05/29 12:01:21;;;;;;;8.13;5.83;;;16.30;99.90;;;;;;5071692;28;20560;-63
2021/05/29 12:03:49;;;;;;;11.43;7.90;;;16.50;99.90;;;;;;5071971;28;20229;-63
2021/05/29 12:06:36;;;;;;;8.20;5.70;;;16.70;99.90;;;;;;5072299;28;20236;-63
2021/05/29 12:09:05;;;;;;;7.73;5.53;;;16.90;99.90;;;;;;5071568;28;20563;-65
2021/05/29 12:11:34;;;;;;;6.83;5.60;;;16.90;99.90;;;;;;5071364;28;20201;-63
2021/05/29 12:14:03;;;;;;;10.10;6.63;;;16.70;99.90;;;;;;5071519;28;20205;-63
2021/05/29 12:16:32;;;;;;;9.00;6.23;;;16.60;99.90;;;;;;5071464;28;20724;-61
2021/05/29 12:18:58;;;;;;;9.87;5.87;;;16.50;99.90;;;;;;5071591;28;20208;-61
2021/05/29 12:21:40;;;;;;;8.33;5.53;;;16.60;99.90;;;;;;5071212;28;20216;-60
2021/05/29 12:24:06;;;;;;;7.67;5.90;;;16.80;99.90;;;;;;5071763;28;20586;-58
2021/05/29 12:26:34;;;;;;;5.77;4.80;;;17.00;99.90;;;;;;5069907;28;20225;-57
2021/05/29 12:29:00;;;;;;;7.10;4.93;;;17.30;99.90;;;;;;5070042;28;20204;-56
2021/05/29 12:31:46;;;;;;;10.13;6.17;;;17.40;99.90;;;;;;5070425;28;20212;-60
2021/05/29 12:34:13;;;;;;;8.93;6.00;;;16.90;99.90;;;;;;5070310;28;20795;-61
2021/05/29 12:37:04;;;;;;;7.33;4.83;;;17.10;99.90;;;;;;5069975;28;20243;-60
2021/05/29 12:39:48;;;;;;;9.80;6.43;;;17.10;99.90;;;;;;5070199;28;20212;-62
2021/05/29 12:42:34;;;;;;;8.97;6.00;;;16.50;99.90;;;;;;5069755;28;20239;-63
2021/05/29 12:45:04;;;;;;;9.87;6.07;;;16.70;99.90;;;;;;5071326;28;20266;-63
2021/05/29 12:47:32;;;;;;;8.97;6.57;;;16.50;99.90;;;;;;5071483;28;20200;-61
2021/05/29 12:50:10;;;;;;;11.03;6.77;;;16.40;99.90;;;;;;5070580;28;20209;-60
2021/05/29 12:52:36;;;;;;;7.43;5.17;;;16.40;99.90;;;;;;5070537;28;20220;-61
2021/05/29 12:55:05;;;;;;;9.33;6.17;;;16.50;99.90;;;;;;5070096;28;20239;-60
2021/05/29 12:57:39;;;;;;;8.23;5.77;;;16.90;99.90;;;;;;5069506;28;20209;-60